sensor_id;sensor_type;location;lat;lon;timestamp;temperature;humidity
69084;SHT31;56185;48.526;9.044;2024-02-15T00:02:13;9.90;84.00
69084;SHT31;56185;48.526;9.044;2024-02-15T00:04:38;9.84;83.99
69084;SHT31;56185;48.526;9.044;2024-02-15T00:07:04;9.90;83.76
69084;SHT31;56185;48.526;9.044;2024-02-15T00:09:29;9.89;83.77
69084;SHT31;56185;48.526;9.044;2024-02-15T00:11:55;9.86;83.77
69084;SHT31;56185;48.526;9.044;2024-02-15T00:14:21;9.83;83.70
69084;SHT31;56185;48.526;9.044;2024-02-15T00:16:46;9.79;84.13
69084;SHT31;56185;48.526;9.044;2024-02-15T00:19:11;9.81;83.88
69084;SHT31;56185;48.526;9.044;2024-02-15T00:21:36;9.67;84.63
69084;SHT31;56185;48.526;9.044;2024-02-15T00:24:02;9.66;84.99
69084;SHT31;56185;48.526;9.044;2024-02-15T00:26:27;9.72;84.80
69084;SHT31;56185;48.526;9.044;2024-02-15T00:28:52;9.72;84.75
69084;SHT31;56185;48.526;9.044;2024-02-15T00:31:17;9.73;84.78
69084;SHT31;56185;48.526;9.044;2024-02-15T00:33:43;9.64;85.10
69084;SHT31;56185;48.526;9.044;2024-02-15T00:36:09;9.76;84.65
69084;SHT31;56185;48.526;9.044;2024-02-15T00:38:35;9.72;84.86
69084;SHT31;56185;48.526;9.044;2024-02-15T00:41:00;9.67;85.01
69084;SHT31;56185;48.526;9.044;2024-02-15T00:43:28;9.72;84.79
69084;SHT31;56185;48.526;9.044;2024-02-15T00:45:53;9.70;85.01
69084;SHT31;56185;48.526;9.044;2024-02-15T00:48:19;9.73;84.87
69084;SHT31;56185;48.526;9.044;2024-02-15T00:50:44;9.60;85.33
69084;SHT31;56185;48.526;9.044;2024-02-15T00:53:09;9.72;84.84
69084;SHT31;56185;48.526;9.044;2024-02-15T00:55:34;9.66;85.02
69084;SHT31;56185;48.526;9.044;2024-02-15T00:57:59;9.67;84.74
69084;SHT31;56185;48.526;9.044;2024-02-15T01:00:25;9.49;85.11
69084;SHT31;56185;48.526;9.044;2024-02-15T01:02:50;9.56;84.71
69084;SHT31;56185;48.526;9.044;2024-02-15T01:05:15;9.36;85.25
69084;SHT31;56185;48.526;9.044;2024-02-15T01:07:41;9.43;84.71
69084;SHT31;56185;48.526;9.044;2024-02-15T01:10:07;9.42;84.66
69084;SHT31;56185;48.526;9.044;2024-02-15T01:12:32;9.40;84.67
69084;SHT31;56185;48.526;9.044;2024-02-15T01:14:57;9.36;84.79
69084;SHT31;56185;48.526;9.044;2024-02-15T01:17:23;9.21;85.14
69084;SHT31;56185;48.526;9.044;2024-02-15T01:19:48;9.25;84.77
69084;SHT31;56185;48.526;9.044;2024-02-15T01:22:13;9.11;85.31
69084;SHT31;56185;48.526;9.044;2024-02-15T01:24:38;9.05;85.11
69084;SHT31;56185;48.526;9.044;2024-02-15T01:27:04;9.15;84.86
69084;SHT31;56185;48.526;9.044;2024-02-15T01:29:29;9.07;85.10
69084;SHT31;56185;48.526;9.044;2024-02-15T01:31:54;8.98;85.50
69084;SHT31;56185;48.526;9.044;2024-02-15T01:34:19;8.63;87.22
69084;SHT31;56185;48.526;9.044;2024-02-15T01:36:48;8.70;87.24
69084;SHT31;56185;48.526;9.044;2024-02-15T01:39:13;8.68;86.97
69084;SHT31;56185;48.526;9.044;2024-02-15T01:41:38;8.65;86.68
69084;SHT31;56185;48.526;9.044;2024-02-15T01:44:03;8.60;86.68
69084;SHT31;56185;48.526;9.044;2024-02-15T01:46:29;8.57;87.20
69084;SHT31;56185;48.526;9.044;2024-02-15T01:48:54;8.56;87.04
69084;SHT31;56185;48.526;9.044;2024-02-15T01:51:20;8.71;86.71
69084;SHT31;56185;48.526;9.044;2024-02-15T01:53:45;8.71;86.17
69084;SHT31;56185;48.526;9.044;2024-02-15T01:56:13;8.60;86.26
69084;SHT31;56185;48.526;9.044;2024-02-15T01:58:40;8.54;86.12
69084;SHT31;56185;48.526;9.044;2024-02-15T02:01:06;8.52;85.84
69084;SHT31;56185;48.526;9.044;2024-02-15T02:03:31;8.42;86.07
69084;SHT31;56185;48.526;9.044;2024-02-15T02:05:57;8.40;85.84
69084;SHT31;56185;48.526;9.044;2024-02-15T02:08:22;8.34;85.94
69084;SHT31;56185;48.526;9.044;2024-02-15T02:10:47;8.34;85.83
69084;SHT31;56185;48.526;9.044;2024-02-15T02:13:13;8.28;86.12
69084;SHT31;56185;48.526;9.044;2024-02-15T02:15:38;8.25;86.38
69084;SHT31;56185;48.526;9.044;2024-02-15T02:18:04;8.21;86.34
69084;SHT31;56185;48.526;9.044;2024-02-15T02:20:29;8.23;86.23
69084;SHT31;56185;48.526;9.044;2024-02-15T02:23:01;8.10;86.57
69084;SHT31;56185;48.526;9.044;2024-02-15T02:25:28;8.13;86.33
69084;SHT31;56185;48.526;9.044;2024-02-15T02:27:53;8.05;86.91
69084;SHT31;56185;48.526;9.044;2024-02-15T02:30:20;7.99;86.85
69084;SHT31;56185;48.526;9.044;2024-02-15T02:32:45;7.88;86.41
69084;SHT31;56185;48.526;9.044;2024-02-15T02:35:11;7.89;86.27
69084;SHT31;56185;48.526;9.044;2024-02-15T02:37:36;7.72;86.39
69084;SHT31;56185;48.526;9.044;2024-02-15T02:40:01;7.71;86.02
69084;SHT31;56185;48.526;9.044;2024-02-15T02:42:27;7.57;86.52
69084;SHT31;56185;48.526;9.044;2024-02-15T02:44:52;7.58;86.35
69084;SHT31;56185;48.526;9.044;2024-02-15T02:47:17;7.47;86.43
69084;SHT31;56185;48.526;9.044;2024-02-15T02:49:42;7.38;86.32
69084;SHT31;56185;48.526;9.044;2024-02-15T02:52:08;7.38;85.87
69084;SHT31;56185;48.526;9.044;2024-02-15T02:54:33;7.35;85.48
69084;SHT31;56185;48.526;9.044;2024-02-15T02:56:58;7.41;85.34
69084;SHT31;56185;48.526;9.044;2024-02-15T02:59:23;7.27;85.64
69084;SHT31;56185;48.526;9.044;2024-02-15T03:01:49;7.19;86.42
69084;SHT31;56185;48.526;9.044;2024-02-15T03:04:15;7.10;86.72
69084;SHT31;56185;48.526;9.044;2024-02-15T03:06:40;7.10;87.15
69084;SHT31;56185;48.526;9.044;2024-02-15T03:09:06;7.04;87.90
69084;SHT31;56185;48.526;9.044;2024-02-15T03:11:31;7.13;87.68
69084;SHT31;56185;48.526;9.044;2024-02-15T03:13:56;7.04;87.56
69084;SHT31;56185;48.526;9.044;2024-02-15T03:16:22;7.13;87.67
69084;SHT31;56185;48.526;9.044;2024-02-15T03:18:47;7.19;87.22
69084;SHT31;56185;48.526;9.044;2024-02-15T03:21:12;7.07;86.78
69084;SHT31;56185;48.526;9.044;2024-02-15T03:23:38;6.99;86.96
69084;SHT31;56185;48.526;9.044;2024-02-15T03:26:03;6.95;86.17
69084;SHT31;56185;48.526;9.044;2024-02-15T03:28:28;6.75;86.76
69084;SHT31;56185;48.526;9.044;2024-02-15T03:30:53;6.62;86.85
69084;SHT31;56185;48.526;9.044;2024-02-15T03:33:19;6.58;86.63
69084;SHT31;56185;48.526;9.044;2024-02-15T03:35:44;6.68;86.55
69084;SHT31;56185;48.526;9.044;2024-02-15T03:38:09;6.59;86.94
69084;SHT31;56185;48.526;9.044;2024-02-15T03:40:34;6.68;86.92
69084;SHT31;56185;48.526;9.044;2024-02-15T03:43:00;6.54;86.45
69084;SHT31;56185;48.526;9.044;2024-02-15T03:45:25;6.59;86.27
69084;SHT31;56185;48.526;9.044;2024-02-15T03:47:53;6.49;86.33
69084;SHT31;56185;48.526;9.044;2024-02-15T03:50:19;6.51;85.98
69084;SHT31;56185;48.526;9.044;2024-02-15T03:52:45;6.44;86.39
69084;SHT31;56185;48.526;9.044;2024-02-15T03:55:11;6.35;86.90
69084;SHT31;56185;48.526;9.044;2024-02-15T03:57:40;6.40;87.93
69084;SHT31;56185;48.526;9.044;2024-02-15T04:00:06;6.41;87.22
69084;SHT31;56185;48.526;9.044;2024-02-15T04:02:31;6.45;87.39
69084;SHT31;56185;48.526;9.044;2024-02-15T04:04:57;6.40;87.06
69084;SHT31;56185;48.526;9.044;2024-02-15T04:07:23;6.28;87.03
69084;SHT31;56185;48.526;9.044;2024-02-15T04:09:48;6.38;87.08
69084;SHT31;56185;48.526;9.044;2024-02-15T04:12:14;6.27;87.08
69084;SHT31;56185;48.526;9.044;2024-02-15T04:14:43;6.41;86.84
69084;SHT31;56185;48.526;9.044;2024-02-15T04:17:08;6.34;86.74
69084;SHT31;56185;48.526;9.044;2024-02-15T04:19:34;6.45;86.27
69084;SHT31;56185;48.526;9.044;2024-02-15T04:21:59;6.44;86.39
69084;SHT31;56185;48.526;9.044;2024-02-15T04:24:24;6.37;87.28
69084;SHT31;56185;48.526;9.044;2024-02-15T04:26:50;6.41;86.31
69084;SHT31;56185;48.526;9.044;2024-02-15T04:29:15;6.38;86.67
69084;SHT31;56185;48.526;9.044;2024-02-15T04:31:41;6.34;86.30
69084;SHT31;56185;48.526;9.044;2024-02-15T04:34:06;6.30;86.99
69084;SHT31;56185;48.526;9.044;2024-02-15T04:36:31;6.41;86.77
69084;SHT31;56185;48.526;9.044;2024-02-15T04:38:57;6.33;86.19
69084;SHT31;56185;48.526;9.044;2024-02-15T04:41:22;6.17;86.32
69084;SHT31;56185;48.526;9.044;2024-02-15T04:43:47;6.04;86.96
69084;SHT31;56185;48.526;9.044;2024-02-15T04:46:12;6.09;87.37
69084;SHT31;56185;48.526;9.044;2024-02-15T04:48:37;6.07;87.37
69084;SHT31;56185;48.526;9.044;2024-02-15T04:51:03;6.06;86.75
69084;SHT31;56185;48.526;9.044;2024-02-15T04:53:28;5.97;87.54
69084;SHT31;56185;48.526;9.044;2024-02-15T04:55:53;6.11;87.03
69084;SHT31;56185;48.526;9.044;2024-02-15T04:58:19;6.03;87.24
69084;SHT31;56185;48.526;9.044;2024-02-15T05:00:44;5.96;87.05
69084;SHT31;56185;48.526;9.044;2024-02-15T05:03:09;5.89;86.79
69084;SHT31;56185;48.526;9.044;2024-02-15T05:05:34;5.76;87.36
69084;SHT31;56185;48.526;9.044;2024-02-15T05:08:00;5.80;87.73
69084;SHT31;56185;48.526;9.044;2024-02-15T05:10:25;5.93;86.68
69084;SHT31;56185;48.526;9.044;2024-02-15T05:12:50;5.97;86.39
69084;SHT31;56185;48.526;9.044;2024-02-15T05:15:15;5.93;86.43
69084;SHT31;56185;48.526;9.044;2024-02-15T05:17:41;5.79;87.23
69084;SHT31;56185;48.526;9.044;2024-02-15T05:20:10;5.77;88.06
69084;SHT31;56185;48.526;9.044;2024-02-15T05:22:35;5.85;87.87
69084;SHT31;56185;48.526;9.044;2024-02-15T05:25:00;5.83;88.28
69084;SHT31;56185;48.526;9.044;2024-02-15T05:27:25;5.82;88.23
69084;SHT31;56185;48.526;9.044;2024-02-15T05:29:51;5.85;88.81
69084;SHT31;56185;48.526;9.044;2024-02-15T05:32:16;5.85;89.07
69084;SHT31;56185;48.526;9.044;2024-02-15T05:34:41;5.82;89.01
69084;SHT31;56185;48.526;9.044;2024-02-15T05:37:06;5.85;89.18
69084;SHT31;56185;48.526;9.044;2024-02-15T05:39:31;5.86;89.30
69084;SHT31;56185;48.526;9.044;2024-02-15T05:41:57;5.77;89.46
69084;SHT31;56185;48.526;9.044;2024-02-15T05:44:22;5.86;89.43
69084;SHT31;56185;48.526;9.044;2024-02-15T05:46:47;5.85;88.94
69084;SHT31;56185;48.526;9.044;2024-02-15T05:49:12;5.89;88.82
69084;SHT31;56185;48.526;9.044;2024-02-15T05:51:38;5.86;88.44
69084;SHT31;56185;48.526;9.044;2024-02-15T05:54:03;5.96;88.23
69084;SHT31;56185;48.526;9.044;2024-02-15T05:56:28;6.03;87.80
69084;SHT31;56185;48.526;9.044;2024-02-15T05:58:53;5.86;87.71
69084;SHT31;56185;48.526;9.044;2024-02-15T06:01:19;5.76;88.33
69084;SHT31;56185;48.526;9.044;2024-02-15T06:03:44;5.77;88.30
69084;SHT31;56185;48.526;9.044;2024-02-15T06:06:09;5.79;87.96
69084;SHT31;56185;48.526;9.044;2024-02-15T06:08:35;5.89;87.40
69084;SHT31;56185;48.526;9.044;2024-02-15T06:11:01;5.76;87.81
69084;SHT31;56185;48.526;9.044;2024-02-15T06:13:27;5.83;87.23
69084;SHT31;56185;48.526;9.044;2024-02-15T06:15:53;5.77;87.28
69084;SHT31;56185;48.526;9.044;2024-02-15T06:18:19;5.86;86.93
69084;SHT31;56185;48.526;9.044;2024-02-15T06:20:44;5.77;86.80
69084;SHT31;56185;48.526;9.044;2024-02-15T06:23:09;5.77;87.02
69084;SHT31;56185;48.526;9.044;2024-02-15T06:25:35;5.72;87.22
69084;SHT31;56185;48.526;9.044;2024-02-15T06:28:00;5.79;87.17
69084;SHT31;56185;48.526;9.044;2024-02-15T06:30:25;5.79;86.89
69084;SHT31;56185;48.526;9.044;2024-02-15T06:32:52;5.72;86.66
69084;SHT31;56185;48.526;9.044;2024-02-15T06:35:17;5.62;86.46
69084;SHT31;56185;48.526;9.044;2024-02-15T06:37:42;5.69;86.03
69084;SHT31;56185;48.526;9.044;2024-02-15T06:40:08;5.73;85.80
69084;SHT31;56185;48.526;9.044;2024-02-15T06:42:33;5.56;86.68
69084;SHT31;56185;48.526;9.044;2024-02-15T06:44:58;5.55;86.65
69084;SHT31;56185;48.526;9.044;2024-02-15T06:47:24;5.41;87.41
69084;SHT31;56185;48.526;9.044;2024-02-15T06:49:49;5.38;87.95
69084;SHT31;56185;48.526;9.044;2024-02-15T06:52:14;5.45;88.10
69084;SHT31;56185;48.526;9.044;2024-02-15T06:54:40;5.42;88.21
69084;SHT31;56185;48.526;9.044;2024-02-15T06:57:06;5.51;88.54
69084;SHT31;56185;48.526;9.044;2024-02-15T06:59:32;5.52;89.26
69084;SHT31;56185;48.526;9.044;2024-02-15T07:01:58;5.62;88.89
69084;SHT31;56185;48.526;9.044;2024-02-15T07:04:24;5.66;88.77
69084;SHT31;56185;48.526;9.044;2024-02-15T07:06:49;5.79;88.43
69084;SHT31;56185;48.526;9.044;2024-02-15T07:09:15;5.79;88.74
69084;SHT31;56185;48.526;9.044;2024-02-15T07:11:40;5.82;88.56
69084;SHT31;56185;48.526;9.044;2024-02-15T07:14:05;6.03;88.06
69084;SHT31;56185;48.526;9.044;2024-02-15T07:16:30;6.18;87.93
69084;SHT31;56185;48.526;9.044;2024-02-15T07:18:56;6.34;87.25
69084;SHT31;56185;48.526;9.044;2024-02-15T07:21:21;6.42;86.90
69084;SHT31;56185;48.526;9.044;2024-02-15T07:23:47;6.61;86.09
69084;SHT31;56185;48.526;9.044;2024-02-15T07:26:12;6.62;85.75
69084;SHT31;56185;48.526;9.044;2024-02-15T07:28:37;6.72;85.13
69084;SHT31;56185;48.526;9.044;2024-02-15T07:31:03;6.81;85.54
69084;SHT31;56185;48.526;9.044;2024-02-15T07:33:28;6.93;85.51
69084;SHT31;56185;48.526;9.044;2024-02-15T07:35:54;7.02;85.31
69084;SHT31;56185;48.526;9.044;2024-02-15T07:38:19;7.13;85.23
69084;SHT31;56185;48.526;9.044;2024-02-15T07:40:45;7.23;84.75
69084;SHT31;56185;48.526;9.044;2024-02-15T07:43:10;7.30;83.95
69084;SHT31;56185;48.526;9.044;2024-02-15T07:45:35;7.30;83.47
69084;SHT31;56185;48.526;9.044;2024-02-15T07:48:01;7.34;83.28
69084;SHT31;56185;48.526;9.044;2024-02-15T07:50:26;7.35;83.46
69084;SHT31;56185;48.526;9.044;2024-02-15T07:52:51;7.50;83.72
69084;SHT31;56185;48.526;9.044;2024-02-15T07:55:17;7.46;83.86
69084;SHT31;56185;48.526;9.044;2024-02-15T07:57:42;7.46;84.05
69084;SHT31;56185;48.526;9.044;2024-02-15T08:00:07;7.53;84.42
69084;SHT31;56185;48.526;9.044;2024-02-15T08:02:33;7.64;83.59
69084;SHT31;56185;48.526;9.044;2024-02-15T08:04:58;7.58;84.40
69084;SHT31;56185;48.526;9.044;2024-02-15T08:07:23;7.67;83.77
69084;SHT31;56185;48.526;9.044;2024-02-15T08:09:48;7.78;83.80
69084;SHT31;56185;48.526;9.044;2024-02-15T08:12:14;7.79;84.06
69084;SHT31;56185;48.526;9.044;2024-02-15T08:14:39;7.89;83.74
69084;SHT31;56185;48.526;9.044;2024-02-15T08:17:04;7.93;83.05
69084;SHT31;56185;48.526;9.044;2024-02-15T08:19:29;7.99;82.87
69084;SHT31;56185;48.526;9.044;2024-02-15T08:21:55;8.02;82.84
69084;SHT31;56185;48.526;9.044;2024-02-15T08:24:20;8.05;82.91
69084;SHT31;56185;48.526;9.044;2024-02-15T08:26:45;8.07;83.27
69084;SHT31;56185;48.526;9.044;2024-02-15T08:29:11;8.09;83.48
69084;SHT31;56185;48.526;9.044;2024-02-15T08:31:36;8.06;83.23
69084;SHT31;56185;48.526;9.044;2024-02-15T08:34:02;8.07;83.33
69084;SHT31;56185;48.526;9.044;2024-02-15T08:36:29;8.22;82.79
69084;SHT31;56185;48.526;9.044;2024-02-15T08:38:54;8.25;82.82
69084;SHT31;56185;48.526;9.044;2024-02-15T08:41:19;8.32;82.97
69084;SHT31;56185;48.526;9.044;2024-02-15T08:43:46;8.29;82.98
69084;SHT31;56185;48.526;9.044;2024-02-15T08:46:11;8.37;82.84
69084;SHT31;56185;48.526;9.044;2024-02-15T08:48:37;8.52;82.24
69084;SHT31;56185;48.526;9.044;2024-02-15T08:51:02;8.56;82.03
69084;SHT31;56185;48.526;9.044;2024-02-15T08:53:27;8.67;81.89
69084;SHT31;56185;48.526;9.044;2024-02-15T08:55:53;8.60;82.06
69084;SHT31;56185;48.526;9.044;2024-02-15T08:58:19;8.70;82.11
69084;SHT31;56185;48.526;9.044;2024-02-15T09:00:44;8.85;82.35
69084;SHT31;56185;48.526;9.044;2024-02-15T09:03:10;8.87;82.17
69084;SHT31;56185;48.526;9.044;2024-02-15T09:05:35;9.07;81.93
69084;SHT31;56185;48.526;9.044;2024-02-15T09:08:00;9.16;81.18
69084;SHT31;56185;48.526;9.044;2024-02-15T09:10:26;9.22;80.87
69084;SHT31;56185;48.526;9.044;2024-02-15T09:12:51;9.32;80.88
69084;SHT31;56185;48.526;9.044;2024-02-15T09:15:19;9.40;80.56
69084;SHT31;56185;48.526;9.044;2024-02-15T09:17:44;9.49;80.28
69084;SHT31;56185;48.526;9.044;2024-02-15T09:20:11;9.44;80.77
69084;SHT31;56185;48.526;9.044;2024-02-15T09:22:36;9.44;80.93
69084;SHT31;56185;48.526;9.044;2024-02-15T09:25:02;9.50;80.54
69084;SHT31;56185;48.526;9.044;2024-02-15T09:27:28;9.76;80.27
69084;SHT31;56185;48.526;9.044;2024-02-15T09:29:53;9.83;79.74
69084;SHT31;56185;48.526;9.044;2024-02-15T09:32:18;10.02;79.08
69084;SHT31;56185;48.526;9.044;2024-02-15T09:34:43;10.18;78.96
69084;SHT31;56185;48.526;9.044;2024-02-15T09:37:08;10.20;79.08
69084;SHT31;56185;48.526;9.044;2024-02-15T09:39:34;10.37;78.22
69084;SHT31;56185;48.526;9.044;2024-02-15T09:41:59;10.52;77.59
69084;SHT31;56185;48.526;9.044;2024-02-15T09:44:26;10.56;77.43
69084;SHT31;56185;48.526;9.044;2024-02-15T09:47:06;10.58;77.54
69084;SHT31;56185;48.526;9.044;2024-02-15T09:49:38;10.68;77.60
69084;SHT31;56185;48.526;9.044;2024-02-15T09:52:06;10.65;77.37
69084;SHT31;56185;48.526;9.044;2024-02-15T09:54:32;10.80;77.12
69084;SHT31;56185;48.526;9.044;2024-02-15T09:57:01;10.73;77.51
69084;SHT31;56185;48.526;9.044;2024-02-15T09:59:26;10.90;77.29
69084;SHT31;56185;48.526;9.044;2024-02-15T10:01:56;11.11;76.78
69084;SHT31;56185;48.526;9.044;2024-02-15T10:04:23;11.30;76.44
69084;SHT31;56185;48.526;9.044;2024-02-15T10:06:48;11.47;75.69
69084;SHT31;56185;48.526;9.044;2024-02-15T10:11:56;11.61;74.99
69084;SHT31;56185;48.526;9.044;2024-02-15T10:14:22;11.61;74.74
69084;SHT31;56185;48.526;9.044;2024-02-15T10:16:48;11.71;74.44
69084;SHT31;56185;48.526;9.044;2024-02-15T10:19:13;11.71;74.28
69084;SHT31;56185;48.526;9.044;2024-02-15T10:21:38;11.83;74.18
69084;SHT31;56185;48.526;9.044;2024-02-15T10:24:08;11.86;73.99
69084;SHT31;56185;48.526;9.044;2024-02-15T10:26:33;12.06;73.79
69084;SHT31;56185;48.526;9.044;2024-02-15T10:29:06;12.19;73.21
69084;SHT31;56185;48.526;9.044;2024-02-15T10:31:31;12.36;73.26
69084;SHT31;56185;48.526;9.044;2024-02-15T10:34:02;12.47;73.07
69084;SHT31;56185;48.526;9.044;2024-02-15T10:36:27;12.61;72.08
69084;SHT31;56185;48.526;9.044;2024-02-15T10:38:52;12.80;71.88
69084;SHT31;56185;48.526;9.044;2024-02-15T10:41:18;12.95;70.73
69084;SHT31;56185;48.526;9.044;2024-02-15T10:43:44;12.98;70.77
69084;SHT31;56185;48.526;9.044;2024-02-15T10:46:11;13.01;70.18
69084;SHT31;56185;48.526;9.044;2024-02-15T10:48:36;12.88;71.67
69084;SHT31;56185;48.526;9.044;2024-02-15T10:51:03;13.07;70.75
69084;SHT31;56185;48.526;9.044;2024-02-15T10:53:35;13.16;69.60
69084;SHT31;56185;48.526;9.044;2024-02-15T10:58:32;13.23;70.35
69084;SHT31;56185;48.526;9.044;2024-02-15T11:00:59;13.38;69.04
69084;SHT31;56185;48.526;9.044;2024-02-15T11:03:32;13.39;68.83
69084;SHT31;56185;48.526;9.044;2024-02-15T11:06:00;13.50;69.14
69084;SHT31;56185;48.526;9.044;2024-02-15T11:08:27;13.66;69.02
69084;SHT31;56185;48.526;9.044;2024-02-15T11:10:53;13.81;68.66
69084;SHT31;56185;48.526;9.044;2024-02-15T11:13:18;13.94;68.97
69084;SHT31;56185;48.526;9.044;2024-02-15T11:15:45;14.05;67.85
69084;SHT31;56185;48.526;9.044;2024-02-15T11:18:10;14.14;68.02
69084;SHT31;56185;48.526;9.044;2024-02-15T11:23:02;14.20;67.78
69084;SHT31;56185;48.526;9.044;2024-02-15T11:25:35;14.11;67.11
69084;SHT31;56185;48.526;9.044;2024-02-15T11:30:48;14.21;67.41
69084;SHT31;56185;48.526;9.044;2024-02-15T11:33:33;14.25;66.92
69084;SHT31;56185;48.526;9.044;2024-02-15T11:36:16;14.34;68.15
69084;SHT31;56185;48.526;9.044;2024-02-15T11:38:41;14.44;67.48
69084;SHT31;56185;48.526;9.044;2024-02-15T11:41:08;14.48;66.44
69084;SHT31;56185;48.526;9.044;2024-02-15T11:46:04;14.76;66.15
69084;SHT31;56185;48.526;9.044;2024-02-15T11:48:30;14.79;65.82
69084;SHT31;56185;48.526;9.044;2024-02-15T11:50:55;14.82;64.93
69084;SHT31;56185;48.526;9.044;2024-02-15T11:53:20;14.86;64.14
69084;SHT31;56185;48.526;9.044;2024-02-15T11:55:45;14.94;64.99
69084;SHT31;56185;48.526;9.044;2024-02-15T11:58:11;15.03;63.93
69084;SHT31;56185;48.526;9.044;2024-02-15T12:00:39;15.03;63.55
69084;SHT31;56185;48.526;9.044;2024-02-15T12:03:04;15.02;62.17
69084;SHT31;56185;48.526;9.044;2024-02-15T12:05:30;15.11;63.72
69084;SHT31;56185;48.526;9.044;2024-02-15T12:07:55;15.19;62.19
69084;SHT31;56185;48.526;9.044;2024-02-15T12:10:21;15.20;62.02
69084;SHT31;56185;48.526;9.044;2024-02-15T12:12:53;15.37;62.83
69084;SHT31;56185;48.526;9.044;2024-02-15T12:15:18;15.54;62.96
69084;SHT31;56185;48.526;9.044;2024-02-15T12:17:44;15.61;61.84
69084;SHT31;56185;48.526;9.044;2024-02-15T12:20:09;15.65;62.93
69084;SHT31;56185;48.526;9.044;2024-02-15T12:22:45;15.62;61.81
69084;SHT31;56185;48.526;9.044;2024-02-15T12:25:15;15.65;62.00
69084;SHT31;56185;48.526;9.044;2024-02-15T12:27:41;15.62;62.60
69084;SHT31;56185;48.526;9.044;2024-02-15T12:30:07;15.72;61.92
69084;SHT31;56185;48.526;9.044;2024-02-15T12:32:37;15.77;60.86
69084;SHT31;56185;48.526;9.044;2024-02-15T12:35:10;15.69;62.03
69084;SHT31;56185;48.526;9.044;2024-02-15T12:37:36;15.83;60.74
69084;SHT31;56185;48.526;9.044;2024-02-15T12:40:15;15.82;60.31
69084;SHT31;56185;48.526;9.044;2024-02-15T12:42:45;15.75;60.31
69084;SHT31;56185;48.526;9.044;2024-02-15T12:45:17;15.81;61.26
69084;SHT31;56185;48.526;9.044;2024-02-15T12:47:43;15.82;60.05
69084;SHT31;56185;48.526;9.044;2024-02-15T12:50:15;15.71;60.59
69084;SHT31;56185;48.526;9.044;2024-02-15T12:52:41;15.81;59.46
69084;SHT31;56185;48.526;9.044;2024-02-15T12:55:12;15.85;59.64
69084;SHT31;56185;48.526;9.044;2024-02-15T12:57:38;15.85;58.92
69084;SHT31;56185;48.526;9.044;2024-02-15T13:00:04;15.88;59.14
69084;SHT31;56185;48.526;9.044;2024-02-15T13:02:29;15.93;57.89
69084;SHT31;56185;48.526;9.044;2024-02-15T13:04:58;15.98;58.83
69084;SHT31;56185;48.526;9.044;2024-02-15T13:07:23;16.02;57.05
69084;SHT31;56185;48.526;9.044;2024-02-15T13:09:48;16.03;57.87
69084;SHT31;56185;48.526;9.044;2024-02-15T13:12:13;16.10;58.31
69084;SHT31;56185;48.526;9.044;2024-02-15T13:14:39;16.17;57.71
69084;SHT31;56185;48.526;9.044;2024-02-15T13:17:04;16.33;57.37
69084;SHT31;56185;48.526;9.044;2024-02-15T13:19:29;16.23;57.44
69084;SHT31;56185;48.526;9.044;2024-02-15T13:21:54;16.29;57.82
69084;SHT31;56185;48.526;9.044;2024-02-15T13:24:20;16.30;58.47
69084;SHT31;56185;48.526;9.044;2024-02-15T13:26:45;16.34;58.43
69084;SHT31;56185;48.526;9.044;2024-02-15T13:29:10;16.41;58.00
69084;SHT31;56185;48.526;9.044;2024-02-15T13:31:35;16.44;57.99
69084;SHT31;56185;48.526;9.044;2024-02-15T13:34:00;16.36;58.01
69084;SHT31;56185;48.526;9.044;2024-02-15T13:36:26;16.41;57.58
69084;SHT31;56185;48.526;9.044;2024-02-15T13:38:51;16.37;57.62
69084;SHT31;56185;48.526;9.044;2024-02-15T13:41:16;16.32;57.90
69084;SHT31;56185;48.526;9.044;2024-02-15T13:43:41;16.33;57.98
69084;SHT31;56185;48.526;9.044;2024-02-15T13:46:07;16.41;59.33
69084;SHT31;56185;48.526;9.044;2024-02-15T13:48:32;16.49;59.48
69084;SHT31;56185;48.526;9.044;2024-02-15T13:50:57;16.54;59.51
69084;SHT31;56185;48.526;9.044;2024-02-15T13:53:22;16.50;59.30
69084;SHT31;56185;48.526;9.044;2024-02-15T13:55:48;16.37;59.95
69084;SHT31;56185;48.526;9.044;2024-02-15T13:58:13;16.40;59.21
69084;SHT31;56185;48.526;9.044;2024-02-15T14:00:40;16.41;59.30
69084;SHT31;56185;48.526;9.044;2024-02-15T14:03:05;16.40;59.79
69084;SHT31;56185;48.526;9.044;2024-02-15T14:05:30;16.40;58.73
69084;SHT31;56185;48.526;9.044;2024-02-15T14:08:01;16.40;57.82
69084;SHT31;56185;48.526;9.044;2024-02-15T14:10:29;16.40;59.41
69084;SHT31;56185;48.526;9.044;2024-02-15T14:12:54;16.44;60.16
69084;SHT31;56185;48.526;9.044;2024-02-15T14:15:21;16.50;59.12
69084;SHT31;56185;48.526;9.044;2024-02-15T14:17:46;16.39;60.69
69084;SHT31;56185;48.526;9.044;2024-02-15T14:20:15;16.50;59.45
69084;SHT31;56185;48.526;9.044;2024-02-15T14:22:40;16.46;59.83
69084;SHT31;56185;48.526;9.044;2024-02-15T14:25:06;16.36;59.18
69084;SHT31;56185;48.526;9.044;2024-02-15T14:27:31;16.47;57.37
69084;SHT31;56185;48.526;9.044;2024-02-15T14:29:57;16.54;58.62
69084;SHT31;56185;48.526;9.044;2024-02-15T14:32:22;16.57;59.37
69084;SHT31;56185;48.526;9.044;2024-02-15T14:34:48;16.71;59.84
69084;SHT31;56185;48.526;9.044;2024-02-15T14:37:17;16.74;59.73
69084;SHT31;56185;48.526;9.044;2024-02-15T14:39:42;16.75;59.88
69084;SHT31;56185;48.526;9.044;2024-02-15T14:42:10;16.80;59.20
69084;SHT31;56185;48.526;9.044;2024-02-15T14:44:35;16.71;60.33
69084;SHT31;56185;48.526;9.044;2024-02-15T14:47:01;16.77;60.01
69084;SHT31;56185;48.526;9.044;2024-02-15T14:49:26;16.68;60.12
69084;SHT31;56185;48.526;9.044;2024-02-15T14:51:51;16.74;59.47
69084;SHT31;56185;48.526;9.044;2024-02-15T14:54:17;16.67;60.43
69084;SHT31;56185;48.526;9.044;2024-02-15T14:56:42;16.71;60.03
69084;SHT31;56185;48.526;9.044;2024-02-15T14:59:07;16.68;59.39
69084;SHT31;56185;48.526;9.044;2024-02-15T15:01:32;16.64;58.78
69084;SHT31;56185;48.526;9.044;2024-02-15T15:03:58;16.63;58.81
69084;SHT31;56185;48.526;9.044;2024-02-15T15:06:23;16.59;58.95
69084;SHT31;56185;48.526;9.044;2024-02-15T15:08:49;16.59;59.24
69084;SHT31;56185;48.526;9.044;2024-02-15T15:11:14;16.56;59.28
69084;SHT31;56185;48.526;9.044;2024-02-15T15:13:39;16.51;60.17
69084;SHT31;56185;48.526;9.044;2024-02-15T15:16:05;16.46;59.91
69084;SHT31;56185;48.526;9.044;2024-02-15T15:18:30;16.43;60.38
69084;SHT31;56185;48.526;9.044;2024-02-15T15:20:55;16.44;60.59
69084;SHT31;56185;48.526;9.044;2024-02-15T15:23:21;16.40;59.99
69084;SHT31;56185;48.526;9.044;2024-02-15T15:25:46;16.39;60.14
69084;SHT31;56185;48.526;9.044;2024-02-15T15:28:11;16.27;60.74
69084;SHT31;56185;48.526;9.044;2024-02-15T15:30:37;16.24;61.46
69084;SHT31;56185;48.526;9.044;2024-02-15T15:33:02;16.22;62.87
69084;SHT31;56185;48.526;9.044;2024-02-15T15:35:27;16.17;62.98
69084;SHT31;56185;48.526;9.044;2024-02-15T15:37:53;16.16;62.58
69084;SHT31;56185;48.526;9.044;2024-02-15T15:40:19;16.10;62.90
69084;SHT31;56185;48.526;9.044;2024-02-15T15:42:45;15.99;64.84
69084;SHT31;56185;48.526;9.044;2024-02-15T15:45:10;15.95;65.73